Time;durP1;ratioP1;P1;durP2;ratioP2;P2;SDS_P1;SDS_P2;PMS_P1;PMS_P2;Temp;Humidity;BMP_temperature;BMP_pressure;BME280_temperature;BME280_humidity;BME280_pressure;Samples;Min_cycle;Max_cycle;Signal;HPM_P1;HPM_P2
2022/01/22 00:00:57;;;;;;;6.65;4.05;;;3.40;63.10;;;;;;5094125;28;20084;-59
2022/01/22 00:03:22;;;;;;;6.95;5.22;;;3.40;63.30;;;;;;5094367;28;20016;-59
2022/01/22 00:05:48;;;;;;;6.65;4.28;;;3.50;63.50;;;;;;5079142;28;20081;-59
2022/01/22 00:08:15;;;;;;;9.48;4.78;;;3.40;63.20;;;;;;5081517;28;20043;-60
2022/01/22 00:10:44;;;;;;;7.88;5.40;;;3.40;63.30;;;;;;5094004;28;20037;-59
2022/01/22 00:15:48;;;;;;;5.32;3.22;;;3.50;63.20;;;;;;5080445;28;20070;-59
2022/01/22 00:18:14;;;;;;;6.03;3.53;;;3.50;63.30;;;;;;5093814;28;20020;-58
2022/01/22 00:20:40;;;;;;;6.85;5.45;;;3.50;63.50;;;;;;5093661;28;20051;-59
2022/01/22 00:23:06;;;;;;;8.15;4.90;;;3.50;63.40;;;;;;5092163;28;20042;-58
2022/01/22 00:25:32;;;;;;;4.10;3.53;;;3.50;63.30;;;;;;5092745;28;20020;-59
2022/01/22 00:27:59;;;;;;;8.18;3.88;;;3.50;63.30;;;;;;5082477;28;20055;-59
2022/01/22 00:30:26;;;;;;;8.27;5.28;;;3.50;63.50;;;;;;5079256;28;20067;-59
2022/01/22 00:32:52;;;;;;;5.95;4.00;;;3.50;63.40;;;;;;5093713;28;20024;-59
2022/01/22 00:35:19;;;;;;;6.40;3.88;;;3.50;63.20;;;;;;5079430;28;20073;-59
2022/01/22 00:37:47;;;;;;;6.72;5.47;;;3.50;63.30;;;;;;5087071;28;20028;-60
2022/01/22 00:40:15;;;;;;;8.70;3.88;;;3.50;63.40;;;;;;5086222;28;20089;-60
2022/01/22 00:42:44;;;;;;;9.93;4.40;;;3.50;63.40;;;;;;5090074;28;20403;-59
2022/01/22 00:45:11;;;;;;;8.05;5.25;;;3.50;63.50;;;;;;5093622;28;20090;-59
2022/01/22 00:47:37;;;;;;;7.38;4.20;;;3.50;63.50;;;;;;5093397;28;20016;-59
2022/01/22 00:50:06;;;;;;;6.78;5.35;;;3.50;63.30;;;;;;5093375;28;20028;-59
2022/01/22 00:52:31;;;;;;;6.65;4.05;;;3.50;63.30;;;;;;5093490;28;20028;-60
2022/01/22 00:54:57;;;;;;;5.63;4.10;;;3.50;63.20;;;;;;5093237;28;20039;-59
2022/01/22 00:57:23;;;;;;;6.90;5.28;;;3.50;63.30;;;;;;5093025;28;20491;-59
2022/01/22 00:59:48;;;;;;;6.38;3.70;;;3.50;63.30;;;;;;5078455;28;20036;-59
2022/01/22 01:02:14;;;;;;;8.18;5.38;;;3.50;63.20;;;;;;5090209;28;20032;-58
2022/01/22 01:04:40;;;;;;;7.50;4.25;;;3.50;63.10;;;;;;5085457;28;20024;-58
2022/01/22 01:07:05;;;;;;;10.38;5.50;;;3.50;63.70;;;;;;5087637;28;20013;-59
2022/01/22 01:09:33;;;;;;;7.00;4.20;;;3.60;63.00;;;;;;5089254;28;20467;-60
2022/01/22 01:12:03;;;;;;;4.35;3.33;;;3.50;62.90;;;;;;5093447;28;20380;-59
2022/01/22 01:14:37;;;;;;;10.57;4.25;;;3.50;62.90;;;;;;5092072;28;20016;-60
2022/01/22 01:33:18;;;;;;;5.32;4.13;;;3.40;63.30;;;;;;5083942;28;20391;-59
2022/01/22 01:35:44;;;;;;;6.75;4.93;;;3.40;63.50;;;;;;5095676;28;20090;-59
2022/01/22 01:38:09;;;;;;;5.95;4.25;;;3.40;63.30;;;;;;5078585;28;20475;-60
2022/01/22 01:40:42;;;;;;;8.43;5.25;;;3.40;63.10;;;;;;5096935;28;20020;-60
2022/01/22 01:43:23;;;;;;;5.70;3.95;;;3.50;63.00;;;;;;5097173;28;20035;-59
2022/01/22 01:45:48;;;;;;;7.20;4.00;;;3.50;63.10;;;;;;5095007;28;20024;-59
2022/01/22 01:48:20;;;;;;;8.07;5.72;;;3.40;63.20;;;;;;5094248;28;20299;-59
2022/01/22 01:50:45;;;;;;;5.38;3.83;;;3.50;63.30;;;;;;5094492;28;20059;-59
2022/01/22 01:53:19;;;;;;;8.07;5.90;;;3.50;63.10;;;;;;5096910;28;20070;-59
2022/01/22 01:58:22;;;;;;;7.30;4.20;;;3.50;63.00;;;;;;5095933;28;20027;-59
2022/01/22 02:00:50;;;;;;;6.18;4.30;;;3.50;63.30;;;;;;5095291;28;20028;-59
2022/01/22 02:03:16;;;;;;;9.77;4.38;;;3.40;63.20;;;;;;5096253;28;20044;-59
2022/01/22 02:05:41;;;;;;;7.60;5.43;;;3.50;63.30;;;;;;5093192;28;20020;-58
2022/01/22 02:08:12;;;;;;;6.50;4.10;;;3.50;63.40;;;;;;5090365;28;20052;-59
2022/01/22 02:10:44;;;;;;;5.80;3.78;;;3.50;63.30;;;;;;5096943;28;20406;-59
2022/01/22 02:24:10;;;;;;;8.00;5.68;;;3.50;63.40;;;;;;5083903;28;20019;-59
2022/01/22 02:26:36;;;;;;;8.02;4.30;;;3.60;63.50;;;;;;5095459;28;20054;-59
2022/01/22 02:29:03;;;;;;;7.00;4.13;;;3.60;63.40;;;;;;5085799;28;20103;-58
2022/01/22 02:31:38;;;;;;;7.30;5.35;;;3.60;63.40;;;;;;5094296;28;20383;-59
2022/01/22 02:36:57;;;;;;;4.53;3.60;;;3.50;63.30;;;;;;5103602;28;20149;-59
2022/01/22 02:39:25;;;;;;;7.50;5.53;;;3.50;63.40;;;;;;5097477;28;20032;-59
2022/01/22 02:41:52;;;;;;;6.60;4.30;;;3.50;63.50;;;;;;5093275;28;20103;-59
2022/01/22 02:44:36;;;;;;;7.28;6.28;;;3.50;63.30;;;;;;5095430;28;20150;-59
2022/01/22 02:47:05;;;;;;;5.60;4.07;;;3.50;63.50;;;;;;5095779;28;20035;-58
2022/01/22 02:49:30;;;;;;;8.00;5.55;;;3.50;63.40;;;;;;5095811;28;20024;-60
2022/01/22 02:52:05;;;;;;;7.15;4.25;;;3.50;63.50;;;;;;5090747;28;20020;-59
2022/01/22 02:54:30;;;;;;;6.38;4.18;;;3.50;63.30;;;;;;5090180;28;20024;-59
2022/01/22 02:56:57;;;;;;;7.68;4.45;;;3.40;63.50;;;;;;5090378;28;20031;-60
2022/01/22 02:59:23;;;;;;;7.38;5.70;;;3.40;63.50;;;;;;5090323;28;20105;-60
2022/01/22 03:01:50;;;;;;;7.22;4.75;;;3.40;63.60;;;;;;5095404;28;20044;-60
2022/01/22 03:04:16;;;;;;;7.40;5.40;;;3.50;63.70;;;;;;5095888;28;20578;-59
2022/01/22 03:06:42;;;;;;;7.13;4.72;;;3.50;63.70;;;;;;5095043;28;20048;-59
2022/01/22 03:09:10;;;;;;;5.88;4.00;;;3.50;63.60;;;;;;5095286;28;20042;-58
2022/01/22 03:22:54;;;;;;;8.52;6.20;;;3.50;64.10;;;;;;5095148;28;20476;-59
2022/01/22 03:28:02;;;;;;;10.15;6.07;;;3.50;64.00;;;;;;5095105;28;20070;-59
2022/01/22 03:30:28;;;;;;;9.10;5.07;;;3.50;64.20;;;;;;5079244;28;20101;-59
2022/01/22 03:32:55;;;;;;;7.70;5.78;;;3.50;64.00;;;;;;5088568;28;20523;-59
2022/01/22 03:37:51;;;;;;;6.22;4.30;;;3.50;64.20;;;;;;5094834;28;20039;-59
2022/01/22 03:40:20;;;;;;;8.35;6.30;;;3.50;64.50;;;;;;5094251;28;20035;-60
2022/01/22 03:42:47;;;;;;;6.00;4.65;;;3.50;64.60;;;;;;5094664;28;20043;-59
2022/01/22 03:45:13;;;;;;;7.63;6.03;;;3.50;64.50;;;;;;5090184;28;20025;-59
2022/01/22 03:47:38;;;;;;;5.90;4.65;;;3.50;64.60;;;;;;5081634;28;20028;-59
2022/01/22 03:50:05;;;;;;;7.18;4.65;;;3.50;64.50;;;;;;5090903;28;20063;-59
2022/01/22 03:52:31;;;;;;;7.07;4.75;;;3.50;64.60;;;;;;5093548;28;20537;-58
2022/01/22 03:54:57;;;;;;;6.78;4.38;;;3.50;64.60;;;;;;5094472;28;20028;-59
2022/01/22 03:57:23;;;;;;;6.35;4.30;;;3.50;64.70;;;;;;5083337;28;20090;-59
2022/01/22 03:59:50;;;;;;;7.80;5.43;;;3.50;64.70;;;;;;5089782;28;20475;-59
2022/01/22 04:04:50;;;;;;;8.30;4.38;;;3.50;64.60;;;;;;5092287;28;20082;-59
2022/01/22 04:10:02;;;;;;;7.57;5.90;;;3.50;64.80;;;;;;5089566;28;20077;-58
2022/01/22 04:13:13;;;;;;;8.93;4.88;;;3.50;64.90;;;;;;5096647;28;20082;-59
2022/01/22 04:15:20;;;;;;;6.10;4.18;;;3.50;64.70;;;;;;5083936;28;20040;-59
2022/01/22 04:26:08;;;;;;;6.38;3.95;;;3.50;64.70;;;;;;5093585;28;20375;-59
2022/01/22 04:28:34;;;;;;;7.30;5.88;;;3.50;64.90;;;;;;5100353;28;20031;-60
2022/01/22 04:30:59;;;;;;;6.65;4.22;;;3.50;65.00;;;;;;5093535;28;20028;-59
2022/01/22 04:33:25;;;;;;;6.20;5.05;;;3.50;64.90;;;;;;5093523;28;20467;-60
2022/01/22 04:35:51;;;;;;;6.30;4.90;;;3.50;65.00;;;;;;5082004;28;20113;-59
2022/01/22 04:38:17;;;;;;;7.45;4.57;;;3.50;64.90;;;;;;5093263;28;20073;-59
2022/01/22 04:40:43;;;;;;;9.35;6.15;;;3.40;65.00;;;;;;5092062;28;20020;-59
2022/01/22 04:43:09;;;;;;;6.93;4.82;;;3.50;65.30;;;;;;5093511;28;20391;-59
2022/01/22 04:55:46;;;;;;;6.30;4.30;;;3.40;65.50;;;;;;5090423;28;20029;-60
2022/01/22 04:58:13;;;;;;;8.70;4.45;;;3.40;65.40;;;;;;5093640;28;20107;-58
2022/01/22 05:00:41;;;;;;;7.60;5.80;;;3.40;65.50;;;;;;5103086;28;20032;-60
2022/01/22 05:03:08;;;;;;;7.43;5.03;;;3.40;65.70;;;;;;5086701;28;20492;-59
2022/01/22 05:05:33;;;;;;;7.50;4.85;;;3.40;65.60;;;;;;5086571;28;20028;-59
2022/01/22 05:07:59;;;;;;;8.40;6.53;;;3.40;65.70;;;;;;5087572;28;20032;-60
2022/01/22 05:10:25;;;;;;;8.07;4.70;;;3.40;65.90;;;;;;5105120;28;20063;-59
2022/01/22 05:12:53;;;;;;;6.15;4.38;;;3.40;65.80;;;;;;5089975;28;20032;-59
2022/01/22 05:15:19;;;;;;;8.18;4.88;;;3.40;65.90;;;;;;5085298;28;20032;-59
2022/01/22 05:17:46;;;;;;;7.40;6.13;;;3.40;66.00;;;;;;5093145;28;20028;-59
2022/01/22 05:25:19;;;;;;;8.13;6.25;;;3.30;65.90;;;;;;5079661;28;20019;-59
2022/01/22 05:38:28;;;;;;;;;;;3.40;66.10;;;;;;5093660;28;20533;-57
2022/01/22 05:40:54;;;;;;;6.13;4.22;;;3.30;66.00;;;;;;5089971;28;19912;-60
2022/01/22 05:43:20;;;;;;;7.35;4.20;;;3.30;66.00;;;;;;5092827;28;20378;-59
2022/01/22 05:45:46;;;;;;;10.88;5.60;;;3.30;66.00;;;;;;5092668;28;20537;-58
2022/01/22 05:48:12;;;;;;;7.93;4.80;;;3.30;66.00;;;;;;5086198;28;20472;-59
2022/01/22 05:53:13;;;;;;;6.07;5.47;;;3.30;66.20;;;;;;5092195;28;20024;-59
2022/01/22 06:01:13;;;;;;;9.88;4.88;;;3.30;66.10;;;;;;5094614;28;20039;-59
2022/01/22 06:03:39;;;;;;;8.43;6.28;;;3.30;66.20;;;;;;5088027;28;20099;-60
2022/01/22 06:06:05;;;;;;;6.22;4.80;;;3.30;66.50;;;;;;5093434;28;20020;-59
2022/01/22 06:08:40;;;;;;;6.72;4.93;;;3.30;66.10;;;;;;5092004;28;20028;-58
2022/01/22 06:11:10;;;;;;;7.15;4.35;;;3.20;66.20;;;;;;5089128;28;20174;-59
2022/01/22 06:13:46;;;;;;;7.88;6.38;;;3.20;66.40;;;;;;5089265;28;20058;-59
2022/01/22 06:16:15;;;;;;;6.72;4.22;;;3.30;66.50;;;;;;5086056;28;20028;-59
2022/01/22 06:18:41;;;;;;;6.78;4.82;;;3.30;66.50;;;;;;5081848;28;20441;-58
2022/01/22 06:21:10;;;;;;;9.68;6.78;;;3.30;66.60;;;;;;5082862;28;20123;-58
2022/01/22 06:23:40;;;;;;;10.98;5.03;;;3.30;66.90;;;;;;5090170;28;20393;-59
2022/01/22 06:26:07;;;;;;;8.23;4.70;;;3.30;66.70;;;;;;5083180;28;20411;-60
2022/01/22 06:28:34;;;;;;;7.80;6.30;;;3.30;66.90;;;;;;5092977;28;20024;-59
2022/01/22 06:31:01;;;;;;;11.32;5.82;;;3.30;66.90;;;;;;5091046;28;20468;-59
2022/01/22 06:33:27;;;;;;;6.07;4.53;;;3.40;66.80;;;;;;5092602;28;20476;-59
2022/01/22 06:35:53;;;;;;;8.40;6.57;;;3.30;66.70;;;;;;5087337;28;20039;-57
2022/01/22 06:38:19;;;;;;;8.88;4.90;;;3.40;66.90;;;;;;5077289;28;20111;-59
2022/01/22 06:43:30;;;;;;;9.80;5.38;;;3.40;67.00;;;;;;5092680;28;20027;-59
2022/01/22 06:45:56;;;;;;;7.22;4.53;;;3.30;66.90;;;;;;5091860;28;20030;-59
2022/01/22 06:48:23;;;;;;;8.07;7.22;;;3.40;67.10;;;;;;5090969;28;20036;-59
2022/01/22 06:50:49;;;;;;;7.32;4.97;;;3.50;67.30;;;;;;5094048;28;20086;-60
2022/01/22 06:53:14;;;;;;;8.23;6.65;;;3.50;67.10;;;;;;5080338;28;20052;-60
2022/01/22 06:55:44;;;;;;;8.05;5.50;;;3.60;67.40;;;;;;5088755;28;20055;-59
2022/01/22 06:58:10;;;;;;;6.90;4.68;;;3.60;67.10;;;;;;5094735;28;20020;-59
2022/01/22 07:00:36;;;;;;;9.50;6.70;;;3.60;67.10;;;;;;5079441;28;20028;-59
2022/01/22 07:03:03;;;;;;;7.18;4.82;;;3.70;67.50;;;;;;5089090;28;20094;-59
2022/01/22 07:05:29;;;;;;;6.82;4.63;;;3.70;67.40;;;;;;5075973;28;20496;-60
2022/01/22 07:07:55;;;;;;;8.55;5.43;;;3.70;67.50;;;;;;5087467;28;20024;-59
2022/01/22 07:10:20;;;;;;;11.63;8.20;;;3.60;67.60;;;;;;5101884;28;20019;-60
2022/01/22 07:12:46;;;;;;;10.93;6.68;;;3.70;67.80;;;;;;5084017;28;20089;-59
2022/01/22 07:15:12;;;;;;;10.18;6.20;;;3.70;67.60;;;;;;5083752;28;20281;-59
2022/01/22 07:17:40;;;;;;;10.35;8.57;;;3.70;67.70;;;;;;5091737;28;20379;-59
2022/01/22 07:20:13;;;;;;;8.55;6.22;;;3.70;67.80;;;;;;5079302;28;20432;-59
2022/01/22 07:22:54;;;;;;;10.57;8.38;;;3.70;67.70;;;;;;5088893;28;20361;-59
2022/01/22 07:25:20;;;;;;;9.63;5.80;;;3.80;67.70;;;;;;5089577;28;20051;-59
2022/01/22 07:27:46;;;;;;;11.25;8.55;;;3.80;67.60;;;;;;5092856;28;20503;-59
2022/01/22 07:30:13;;;;;;;10.18;7.03;;;3.80;67.70;;;;;;5080914;28;20028;-58
2022/01/22 07:32:43;;;;;;;12.13;7.25;;;3.90;67.70;;;;;;5092104;28;20064;-59
2022/01/22 07:35:12;;;;;;;10.07;7.22;;;3.90;67.50;;;;;;5088844;28;20391;-60
2022/01/22 07:37:38;;;;;;;9.77;8.07;;;4.00;67.60;;;;;;5094477;28;20464;-59
2022/01/22 07:40:09;;;;;;;11.65;9.02;;;4.10;67.40;;;;;;5079123;28;20032;-60
2022/01/22 07:42:34;;;;;;;10.47;6.40;;;4.20;67.10;;;;;;5089108;28;20039;-59
2022/01/22 07:45:01;;;;;;;10.55;8.40;;;4.10;66.90;;;;;;5083566;28;20264;-59
2022/01/22 07:47:27;;;;;;;11.43;6.57;;;4.20;67.00;;;;;;5079064;28;20039;-59
2022/01/22 07:49:52;;;;;;;8.60;5.75;;;4.20;67.00;;;;;;5079370;28;20028;-60
2022/01/22 07:52:18;;;;;;;11.10;8.32;;;4.10;67.20;;;;;;5092882;28;20029;-59
2022/01/22 07:54:44;;;;;;;10.75;6.05;;;4.20;67.20;;;;;;5092057;28;20035;-59
2022/01/22 07:57:10;;;;;;;11.98;7.82;;;4.20;67.00;;;;;;5084549;28;20374;-58
2022/01/22 07:59:35;;;;;;;9.57;6.28;;;4.30;67.00;;;;;;5092039;28;20025;-60
2022/01/22 08:02:02;;;;;;;8.15;6.45;;;4.30;66.80;;;;;;5088680;28;20038;-59
2022/01/22 08:04:29;;;;;;;12.35;5.65;;;4.30;66.90;;;;;;5079087;28;20066;-59
2022/01/22 08:06:57;;;;;;;10.57;5.97;;;4.30;66.90;;;;;;5088772;28;20027;-59
2022/01/22 08:09:23;;;;;;;11.57;8.48;;;4.20;67.00;;;;;;5093261;28;20054;-58
2022/01/22 08:11:49;;;;;;;10.82;8.73;;;4.30;67.30;;;;;;5085930;28;20059;-59
2022/01/22 08:14:15;;;;;;;12.75;6.65;;;4.30;67.10;;;;;;5086285;28;20020;-59
2022/01/22 08:16:40;;;;;;;11.23;8.43;;;4.20;66.90;;;;;;5084826;28;20055;-58
2022/01/22 08:19:06;;;;;;;9.60;6.28;;;4.30;67.10;;;;;;5083988;28;20055;-59
2022/01/22 08:21:32;;;;;;;11.45;8.93;;;4.30;67.00;;;;;;5086767;28;20044;-59
2022/01/22 08:23:57;;;;;;;12.18;9.35;;;4.40;67.10;;;;;;5078370;28;20035;-59
2022/01/22 08:26:28;;;;;;;10.80;6.53;;;4.50;66.80;;;;;;5085930;28;20024;-59
2022/01/22 08:28:55;;;;;;;12.80;6.90;;;4.50;66.60;;;;;;5089042;28;20028;-59
2022/01/22 08:31:38;;;;;;;10.85;8.68;;;4.50;66.70;;;;;;5088706;28;20032;-60
2022/01/22 08:36:49;;;;;;;11.82;7.90;;;4.60;66.60;;;;;;5087218;28;20042;-59
2022/01/22 08:39:17;;;;;;;13.15;9.77;;;4.60;66.50;;;;;;5091437;28;20028;-59
2022/01/22 08:41:43;;;;;;;12.70;7.38;;;4.60;66.50;;;;;;5076040;28;20024;-59
2022/01/22 08:44:10;;;;;;;12.88;9.25;;;4.60;66.60;;;;;;5083303;28;20087;-59
2022/01/22 08:46:36;;;;;;;13.70;9.65;;;4.70;66.40;;;;;;5088763;28;20035;-59
2022/01/22 08:49:04;;;;;;;11.63;9.77;;;4.70;66.40;;;;;;5082229;28;20115;-59
2022/01/22 08:51:32;;;;;;;15.27;8.00;;;4.70;66.40;;;;;;5092374;28;20110;-59
2022/01/22 08:54:00;;;;;;;12.50;8.98;;;4.70;66.40;;;;;;5087857;28;20029;-57
2022/01/22 08:56:27;;;;;;;8.30;6.05;;;4.70;66.40;;;;;;5087097;28;20491;-59
2022/01/22 08:58:54;;;;;;;9.30;6.45;;;4.70;66.40;;;;;;5074612;28;20029;-59
2022/01/22 09:01:19;;;;;;;11.68;8.50;;;4.70;66.30;;;;;;5090418;28;20085;-58
2022/01/22 09:03:46;;;;;;;10.93;7.15;;;4.70;66.30;;;;;;5090322;28;20475;-59
2022/01/22 09:06:12;;;;;;;11.57;7.88;;;4.70;66.30;;;;;;5080095;28;20025;-59
2022/01/22 09:08:39;;;;;;;9.77;6.75;;;4.70;66.40;;;;;;5088902;28;20101;-59
2022/01/22 09:11:06;;;;;;;8.38;6.43;;;4.70;66.50;;;;;;5090351;28;20158;-59
2022/01/22 09:13:32;;;;;;;12.27;8.38;;;4.60;66.50;;;;;;5090622;28;20543;-59
2022/01/22 09:15:59;;;;;;;13.05;7.32;;;4.70;66.70;;;;;;5082428;28;20032;-59
2022/01/22 09:18:25;;;;;;;13.27;9.45;;;4.60;67.20;;;;;;5092588;28;20036;-59
2022/01/22 09:23:17;;;;;;;12.35;7.07;;;4.80;66.40;;;;;;5085092;28;20025;-60
2022/01/22 09:25:44;;;;;;;12.90;9.82;;;4.80;66.30;;;;;;5087032;28;20032;-59
2022/01/22 09:28:13;;;;;;;11.52;8.50;;;4.80;66.50;;;;;;5085909;28;20024;-58
2022/01/22 09:30:41;;;;;;;13.43;7.03;;;4.90;66.30;;;;;;5078446;28;20408;-59
2022/01/22 09:33:07;;;;;;;8.00;6.35;;;4.90;66.90;;;;;;5088733;28;20039;-59
2022/01/22 09:35:34;;;;;;;10.68;7.18;;;5.00;66.30;;;;;;5087820;28;20040;-58
2022/01/22 09:38:00;;;;;;;10.52;6.32;;;5.00;66.10;;;;;;5091592;28;20039;-59
2022/01/22 09:40:28;;;;;;;11.30;7.22;;;5.10;65.90;;;;;;5094578;28;20032;-59
2022/01/22 09:42:54;;;;;;;9.25;6.65;;;5.10;65.90;;;;;;5092275;28;20090;-59
2022/01/22 09:45:21;;;;;;;11.05;7.18;;;5.10;65.90;;;;;;5081401;28;20054;-59
2022/01/22 09:47:49;;;;;;;9.40;6.65;;;5.10;65.80;;;;;;5093441;28;20529;-60
2022/01/22 09:50:20;;;;;;;13.07;6.93;;;5.10;65.80;;;;;;5082088;28;20124;-60
2022/01/22 09:52:46;;;;;;;12.40;5.70;;;5.20;65.50;;;;;;5096639;28;20032;-60
2022/01/22 09:55:13;;;;;;;7.97;5.78;;;5.20;65.50;;;;;;5087659;28;20043;-58
2022/01/22 09:57:39;;;;;;;8.80;5.15;;;5.20;65.40;;;;;;5097358;28;20032;-58
2022/01/22 10:00:08;;;;;;;7.55;5.75;;;5.20;65.20;;;;;;5094016;28;20070;-60
2022/01/22 10:02:48;;;;;;;8.48;5.35;;;5.20;64.50;;;;;;5089936;28;20087;-60
2022/01/22 10:05:28;;;;;;;6.78;4.75;;;5.20;64.20;;;;;;5096135;28;20114;-60
2022/01/22 10:07:55;;;;;;;7.25;4.40;;;5.20;64.10;;;;;;5095037;28;20114;-59
2022/01/22 10:10:21;;;;;;;6.20;4.38;;;5.10;64.20;;;;;;5090098;28;20021;-59
2022/01/22 10:12:50;;;;;;;7.90;4.20;;;5.10;63.80;;;;;;5076827;28;20112;-59
2022/01/22 10:15:21;;;;;;;7.25;4.45;;;5.10;63.50;;;;;;5095873;28;20036;-59
2022/01/22 10:17:50;;;;;;;6.88;4.53;;;5.00;63.20;;;;;;5095056;28;20032;-59
2022/01/22 10:20:22;;;;;;;5.75;4.30;;;4.90;63.20;;;;;;5087391;28;20048;-57
2022/01/22 10:22:51;;;;;;;;;;;4.90;63.30;;;;;;5097050;28;20042;-59
2022/01/22 10:25:27;;;;;;;4.80;3.85;;;4.80;63.10;;;;;;5096760;28;20355;-58
2022/01/22 10:28:02;;;;;;;4.88;3.53;;;4.80;63.70;;;;;;5095339;28;20046;-59
2022/01/22 10:30:41;;;;;;;7.47;4.43;;;4.90;63.70;;;;;;5091030;28;20020;-59
2022/01/22 10:33:31;;;;;;;6.53;4.28;;;4.90;63.40;;;;;;5091731;28;20043;-59
2022/01/22 10:36:21;;;;;;;6.13;3.85;;;4.90;62.80;;;;;;5094962;28;20078;-59
2022/01/22 10:38:53;;;;;;;4.93;4.03;;;4.90;62.80;;;;;;5096064;28;20036;-58
2022/01/22 10:41:42;;;;;;;5.28;3.97;;;4.90;62.90;;;;;;5096396;28;20468;-59
2022/01/22 10:44:12;;;;;;;7.03;4.93;;;5.00;63.10;;;;;;5094805;28;20035;-59
2022/01/22 10:49:33;;;;;;;5.70;4.22;;;5.00;61.90;;;;;;5094438;28;20451;-59
2022/01/22 10:52:04;;;;;;;5.70;4.35;;;5.00;61.90;;;;;;5094911;28;20023;-59
2022/01/22 10:54:35;;;;;;;4.13;3.20;;;5.00;61.60;;;;;;5085429;28;20047;-59
2022/01/22 10:57:25;;;;;;;4.80;3.28;;;4.90;61.40;;;;;;5095463;28;20086;-58
2022/01/22 10:59:53;;;;;;;6.85;4.72;;;4.80;61.60;;;;;;5095527;28;20487;-59
2022/01/22 11:02:30;;;;;;;6.13;4.53;;;4.90;61.20;;;;;;5094386;28;20020;-59
2022/01/22 11:04:56;;;;;;;5.82;4.32;;;4.90;60.60;;;;;;5095544;28;20034;-58
2022/01/22 11:07:22;;;;;;;7.05;4.90;;;4.90;60.60;;;;;;5093997;28;20107;-59
2022/01/22 11:09:48;;;;;;;8.18;5.20;;;5.00;60.50;;;;;;5089955;28;20116;-59
2022/01/22 11:12:14;;;;;;;6.88;4.53;;;5.00;60.40;;;;;;5093740;28;20024;-59
2022/01/22 11:14:42;;;;;;;7.82;6.05;;;5.00;60.40;;;;;;5095218;28;20074;-59
2022/01/22 11:17:08;;;;;;;8.75;5.03;;;5.00;60.50;;;;;;5094380;28;20028;-59
2022/01/22 11:19:36;;;;;;;7.72;6.00;;;4.90;60.50;;;;;;5095096;28;20510;-59
2022/01/22 11:22:10;;;;;;;8.55;6.20;;;5.00;60.60;;;;;;5093474;28;20078;-59
2022/01/22 11:24:48;;;;;;;7.28;4.65;;;5.00;60.70;;;;;;5095078;28;20062;-59
2022/01/22 11:27:16;;;;;;;20.98;18.20;;;5.00;60.70;;;;;;5069455;28;20107;-60
2022/01/22 11:29:47;;;;;;;14.90;8.68;;;5.00;60.70;;;;;;5092338;28;20129;-60
2022/01/22 11:32:14;;;;;;;26.50;15.73;;;5.10;60.90;;;;;;5083975;28;20027;-57
2022/01/22 11:34:43;;;;;;;11.40;7.88;;;5.10;61.00;;;;;;5087071;28;20037;-60
2022/01/22 11:37:24;;;;;;;14.15;9.05;;;5.10;60.90;;;;;;5085637;28;20017;-59
2022/01/22 11:40:32;;;;;;;21.98;13.07;;;5.10;60.70;;;;;;5092945;28;20031;-60
2022/01/22 11:43:10;;;;;;;10.38;6.07;;;5.10;60.70;;;;;;4993129;28;20061;-59
2022/01/22 11:45:41;;;;;;;8.98;5.22;;;5.10;60.90;;;;;;4993136;28;20044;-58
2022/01/22 11:48:30;;;;;;;8.88;4.68;;;5.10;61.00;;;;;;5057894;28;20426;-59
2022/01/22 11:51:23;;;;;;;19.30;12.63;;;5.10;61.10;;;;;;5088323;28;20036;-58
2022/01/22 11:53:57;;;;;;;10.60;8.05;;;5.20;60.70;;;;;;5094417;28;20035;-59
2022/01/22 11:56:27;;;;;;;14.65;8.40;;;5.20;60.40;;;;;;5092887;28;20032;-59
2022/01/22 11:58:56;;;;;;;13.48;10.77;;;5.20;60.50;;;;;;5085196;28;20108;-58
2022/01/22 12:01:45;;;;;;;11.75;8.68;;;5.30;60.50;;;;;;5088282;28;20059;-59
2022/01/22 12:04:14;;;;;;;37.20;21.70;;;5.30;60.00;;;;;;5094098;28;20027;-58
2022/01/22 12:07:00;;;;;;;22.70;17.58;;;5.20;60.00;;;;;;5093211;28;20044;-59
2022/01/22 12:09:30;;;;;;;61.60;36.72;;;5.20;59.80;;;;;;5094168;28;20085;-58
2022/01/22 12:14:48;;;;;;;17.38;9.70;;;5.10;60.10;;;;;;5092825;28;20028;-59
2022/01/22 12:17:25;;;;;;;11.73;9.15;;;5.10;60.20;;;;;;5094383;28;20091;-59
2022/01/22 12:22:52;;;;;;;10.23;6.47;;;5.10;60.00;;;;;;5093399;28;20024;-59
2022/01/22 12:25:30;;;;;;;8.25;6.43;;;5.10;59.60;;;;;;5049750;28;20484;-60
2022/01/22 12:27:57;;;;;;;7.10;5.78;;;5.20;59.40;;;;;;5091543;28;20016;-59
2022/01/22 12:30:38;;;;;;;8.43;5.55;;;5.20;59.20;;;;;;5086082;28;20026;-59
2022/01/22 12:33:12;;;;;;;7.85;6.40;;;5.10;59.50;;;;;;5093625;28;20028;-58
2022/01/22 12:35:41;;;;;;;14.68;8.25;;;5.10;59.50;;;;;;5083014;28;20032;-59
2022/01/22 12:38:51;;;;;;;6.45;4.60;;;5.10;59.60;;;;;;5087404;28;20032;-59
2022/01/22 12:41:48;;;;;;;9.85;7.25;;;5.00;59.70;;;;;;5030838;28;20052;-59
2022/01/22 12:47:06;;;;;;;12.35;9.38;;;5.00;59.70;;;;;;5093985;28;20035;-58
2022/01/22 12:49:33;;;;;;;22.40;12.18;;;5.00;59.40;;;;;;5102296;28;20024;-59
2022/01/22 12:52:04;;;;;;;16.48;10.88;;;5.00;59.50;;;;;;5092304;28;20031;-59
2022/01/22 12:54:37;;;;;;;10.00;8.05;;;5.00;59.40;;;;;;5091867;28;20020;-59
2022/01/22 12:57:12;;;;;;;10.45;6.00;;;5.00;59.00;;;;;;5074748;28;20042;-58
2022/01/22 13:02:40;;;;;;;9.30;6.93;;;5.00;59.00;;;;;;5079949;28;20078;-58
2022/01/22 13:05:07;;;;;;;6.40;4.43;;;5.00;59.10;;;;;;5093176;28;20020;-59
2022/01/22 13:07:53;;;;;;;7.57;5.47;;;4.90;59.00;;;;;;5092616;28;20024;-59
2022/01/22 13:10:22;;;;;;;7.00;5.47;;;4.90;58.90;;;;;;5084257;28;20467;-59
2022/01/22 13:12:48;;;;;;;7.95;5.00;;;4.90;58.70;;;;;;5062557;28;20479;-59
2022/01/22 13:15:17;;;;;;;7.95;6.88;;;4.90;58.90;;;;;;5097306;28;20016;-58
2022/01/22 13:17:52;;;;;;;7.82;4.60;;;5.00;58.90;;;;;;5097669;28;20028;-59
2022/01/22 13:20:32;;;;;;;7.75;5.65;;;4.90;58.90;;;;;;5097331;28;20441;-58
2022/01/22 13:23:02;;;;;;;8.93;4.73;;;4.80;58.90;;;;;;5097326;28;20357;-59
2022/01/22 13:25:28;;;;;;;9.93;6.45;;;4.80;59.10;;;;;;5091042;28;20419;-58
2022/01/22 13:28:16;;;;;;;9.02;4.97;;;4.80;59.20;;;;;;5062688;28;20037;-59
2022/01/22 13:30:53;;;;;;;9.05;5.20;;;4.80;59.80;;;;;;5082677;28;20074;-58
2022/01/22 13:33:31;;;;;;;9.48;7.22;;;4.70;59.20;;;;;;5082959;28;20032;-59
2022/01/22 13:49:26;;;;;;;8.52;6.65;;;4.50;59.60;;;;;;5101436;28;20437;-59
2022/01/22 13:51:58;;;;;;;8.93;5.18;;;4.60;59.70;;;;;;5084485;28;20134;-59
2022/01/22 13:54:32;;;;;;;7.35;6.07;;;4.50;59.50;;;;;;5090513;28;20040;-59
2022/01/22 13:57:04;;;;;;;7.65;5.70;;;4.50;59.70;;;;;;5085790;28;20056;-59
2022/01/22 13:59:30;;;;;;;;;;;4.50;59.90;;;;;;5083530;28;20032;-59
2022/01/22 14:04:42;;;;;;;7.38;4.95;;;4.50;60.20;;;;;;5086080;28;20115;-59
2022/01/22 14:07:46;;;;;;;6.13;4.20;;;4.50;60.80;;;;;;5086227;28;20035;-60
2022/01/22 14:10:12;;;;;;;9.63;7.28;;;4.40;60.30;;;;;;5082885;28;20020;-60
2022/01/22 14:12:47;;;;;;;9.45;5.82;;;4.40;60.40;;;;;;5095689;28;20636;-60
2022/01/22 14:15:17;;;;;;;10.07;5.93;;;4.40;60.60;;;;;;5083389;28;20329;-58
2022/01/22 14:18:21;;;;;;;9.20;7.07;;;4.30;60.40;;;;;;5085644;28;20024;-60
2022/01/22 14:21:06;;;;;;;6.72;4.45;;;4.40;60.00;;;;;;5082528;28;20053;-60
2022/01/22 14:23:36;;;;;;;8.90;6.60;;;4.30;59.80;;;;;;5076946;28;20111;-60
2022/01/22 14:26:05;;;;;;;9.15;7.03;;;4.20;59.70;;;;;;5081103;28;20373;-60
2022/01/22 14:28:52;;;;;;;7.32;5.60;;;4.20;59.60;;;;;;5084059;28;20478;-60
2022/01/22 14:31:40;;;;;;;8.98;5.95;;;4.10;59.70;;;;;;5074844;28;20024;-61
2022/01/22 14:34:13;;;;;;;8.95;5.38;;;4.10;59.80;;;;;;5077112;28;20115;-61
2022/01/22 14:36:49;;;;;;;9.23;5.85;;;4.10;59.90;;;;;;5078434;28;20028;-61
2022/01/22 14:44:41;;;;;;;8.50;5.53;;;4.00;60.00;;;;;;5073109;28;20496;-61
2022/01/22 14:47:20;;;;;;;6.97;4.80;;;4.00;60.20;;;;;;5086138;28;20028;-61
2022/01/22 14:49:55;;;;;;;9.20;5.72;;;4.00;60.70;;;;;;5074390;28;20099;-61
2022/01/22 14:52:25;;;;;;;6.18;4.05;;;3.90;62.30;;;;;;5077712;28;20453;-61
2022/01/22 14:54:52;;;;;;;7.28;5.68;;;3.80;63.00;;;;;;5083490;28;20025;-61
2022/01/22 14:57:27;;;;;;;6.90;3.95;;;3.70;64.60;;;;;;5088222;28;20116;-61
2022/01/22 14:59:53;;;;;;;6.82;4.10;;;3.50;65.00;;;;;;5087865;28;20031;-61
2022/01/22 15:02:19;;;;;;;8.27;5.82;;;3.40;65.20;;;;;;5086909;28;20091;-61
2022/01/22 15:04:45;;;;;;;7.07;5.45;;;3.30;66.10;;;;;;5086483;28;20463;-61
2022/01/22 15:07:14;;;;;;;9.70;7.22;;;3.30;66.40;;;;;;5084336;28;20361;-61
2022/01/22 15:09:43;;;;;;;6.82;5.20;;;3.30;67.10;;;;;;5089477;28;20016;-61
2022/01/22 15:12:10;;;;;;;9.65;5.00;;;3.30;67.10;;;;;;5087756;28;20016;-61
2022/01/22 15:14:37;;;;;;;9.63;7.32;;;3.30;67.00;;;;;;5086879;28;20326;-61
2022/01/22 15:19:38;;;;;;;7.13;4.78;;;3.30;67.30;;;;;;5085566;28;20101;-61
2022/01/22 15:22:07;;;;;;;7.75;6.50;;;3.30;67.20;;;;;;5087528;28;20036;-61
2022/01/22 15:24:33;;;;;;;8.23;5.40;;;3.30;67.60;;;;;;5080620;28;20455;-61
2022/01/22 15:26:59;;;;;;;7.22;4.80;;;3.20;67.40;;;;;;5087094;28;20099;-61
2022/01/22 15:29:27;;;;;;;8.10;6.25;;;3.20;67.40;;;;;;5079009;28;20110;-61
2022/01/22 15:34:39;;;;;;;9.95;5.80;;;3.20;67.50;;;;;;5080700;28;20043;-61
2022/01/22 15:37:08;;;;;;;13.15;10.02;;;3.20;67.60;;;;;;5075387;28;20020;-60